createdAt,value
2018-12-13T00:02:11.714Z,2.77
2018-12-13T00:04:40.974Z,3.00
2018-12-13T00:07:10.230Z,3.50
2018-12-13T00:09:40.532Z,3.40
2018-12-13T00:12:09.785Z,3.47
2018-12-13T00:14:39.260Z,3.00
2018-12-13T00:17:08.481Z,3.00
2018-12-13T00:19:37.793Z,2.60
2018-12-13T00:22:07.071Z,3.07
2018-12-13T00:24:36.295Z,3.40
2018-12-13T00:27:05.784Z,3.00
2018-12-13T00:29:35.089Z,2.93
2018-12-13T00:32:04.450Z,2.87
2018-12-13T00:34:33.647Z,3.30
2018-12-13T00:37:02.873Z,3.07
2018-12-13T00:39:32.104Z,2.87
2018-12-13T00:42:01.440Z,3.07
2018-12-13T00:44:31.310Z,3.03
2018-12-13T00:47:00.574Z,3.10
2018-12-13T00:49:29.914Z,3.13
2018-12-13T00:51:59.198Z,2.93
2018-12-13T00:54:28.446Z,2.83
2018-12-13T00:56:58.685Z,2.90
2018-12-13T00:59:28.210Z,3.70
2018-12-13T01:01:57.458Z,3.07
2018-12-13T01:04:26.706Z,3.17
2018-12-13T01:06:56.214Z,3.70
2018-12-13T01:09:25.463Z,3.87
2018-12-13T01:11:55.772Z,3.67
2018-12-13T01:14:25.092Z,3.67
2018-12-13T01:16:54.380Z,3.80
2018-12-13T01:19:23.693Z,3.80
2018-12-13T01:21:53.710Z,3.20
2018-12-13T01:24:23.057Z,3.80
2018-12-13T01:26:52.295Z,3.50
2018-12-13T01:29:22.015Z,3.70
2018-12-13T01:31:51.301Z,3.77
2018-12-13T01:34:21.359Z,3.73
2018-12-13T01:36:52.517Z,4.00
2018-12-13T01:39:21.875Z,3.67
2018-12-13T01:41:51.158Z,3.87
2018-12-13T01:44:20.370Z,3.93
2018-12-13T01:46:50.619Z,3.53
2018-12-13T01:49:19.945Z,3.97
2018-12-13T01:51:49.207Z,3.93
2018-12-13T01:54:18.381Z,3.67
2018-12-13T01:56:48.507Z,3.73
2018-12-13T01:59:18.590Z,3.57
2018-12-13T02:01:49.296Z,4.17
2018-12-13T02:04:18.649Z,3.63
2018-12-13T02:06:49.081Z,3.67
2018-12-13T02:09:18.883Z,3.50
2018-12-13T02:11:48.775Z,3.77
2018-12-13T02:14:18.172Z,3.93
2018-12-13T02:16:47.655Z,3.80
2018-12-13T02:19:16.625Z,3.97
2018-12-13T02:21:46.639Z,3.47
2018-12-13T02:24:15.921Z,3.57
2018-12-13T02:26:45.158Z,3.53
2018-12-13T02:29:14.466Z,3.57
2018-12-13T02:31:44.371Z,3.80
2018-12-13T02:34:14.299Z,3.67
2018-12-13T02:36:43.715Z,4.03
2018-12-13T02:39:13.005Z,3.83
2018-12-13T02:41:42.579Z,3.70
2018-12-13T02:44:12.020Z,3.70
2018-12-13T02:46:42.194Z,4.03
2018-12-13T02:49:11.425Z,3.73
2018-12-13T02:51:41.481Z,3.43
2018-12-13T02:54:11.801Z,3.97
2018-12-13T02:56:41.643Z,4.00
2018-12-13T02:59:11.534Z,3.47
2018-12-13T03:01:40.950Z,3.87
2018-12-13T03:04:10.464Z,4.00
2018-12-13T03:06:41.214Z,3.97
2018-12-13T03:09:10.480Z,3.73
2018-12-13T03:11:39.931Z,3.90
2018-12-13T03:14:09.162Z,3.90
2018-12-13T03:16:38.401Z,3.93
2018-12-13T03:19:07.635Z,4.10
2018-12-13T03:21:36.907Z,4.13
2018-12-13T03:24:06.162Z,3.83
2018-12-13T03:26:35.425Z,4.13
2018-12-13T03:29:05.528Z,3.87
2018-12-13T03:31:34.869Z,3.93
2018-12-13T03:34:04.377Z,3.80
2018-12-13T03:36:33.646Z,3.90
2018-12-13T03:39:03.899Z,4.40
2018-12-13T03:41:33.444Z,4.10
2018-12-13T03:44:03.173Z,3.90
2018-12-13T03:46:32.440Z,3.70
2018-12-13T03:49:01.689Z,4.27
2018-12-13T03:51:30.980Z,3.97
2018-12-13T03:54:00.269Z,4.17
2018-12-13T03:56:29.818Z,3.90
2018-12-13T03:58:59.030Z,3.80
2018-12-13T04:01:28.297Z,3.70
2018-12-13T04:03:57.582Z,3.70
2018-12-13T04:06:26.882Z,3.93
2018-12-13T04:08:56.171Z,3.90
2018-12-13T04:11:25.417Z,3.50
2018-12-13T04:13:54.680Z,3.93
2018-12-13T04:16:23.988Z,3.77
2018-12-13T04:18:53.465Z,3.80
2018-12-13T04:21:23.301Z,4.30
2018-12-13T04:23:52.531Z,4.37
2018-12-13T04:26:21.781Z,3.83
2018-12-13T04:28:51.026Z,4.00
2018-12-13T04:31:21.237Z,4.37
2018-12-13T04:33:50.476Z,4.30
2018-12-13T04:36:19.711Z,4.70
2018-12-13T04:38:50.582Z,4.87
2018-12-13T04:41:19.783Z,4.77
2018-12-13T04:43:51.957Z,4.53
2018-12-13T04:46:21.306Z,5.03
2018-12-13T04:48:50.514Z,4.70
2018-12-13T04:51:19.697Z,4.33
2018-12-13T04:53:48.902Z,4.80
2018-12-13T04:56:18.231Z,4.80
2018-12-13T04:58:47.452Z,4.50
2018-12-13T05:01:17.461Z,5.10
2018-12-13T05:03:47.211Z,4.73
2018-12-13T05:06:16.474Z,5.00
2018-12-13T05:08:45.748Z,4.23
2018-12-13T05:11:15.509Z,4.73
2018-12-13T05:13:44.746Z,4.70
2018-12-13T05:16:14.066Z,4.50
2018-12-13T05:18:43.968Z,4.60
2018-12-13T05:21:13.225Z,4.27
2018-12-13T05:23:44.441Z,4.33
2018-12-13T05:26:13.694Z,4.83
2018-12-13T05:28:49.332Z,4.77
2018-12-13T05:31:18.583Z,4.87
2018-12-13T05:33:47.880Z,4.87
2018-12-13T05:36:17.109Z,4.63
2018-12-13T05:38:46.376Z,5.23
2018-12-13T05:41:16.291Z,5.87
2018-12-13T05:43:48.048Z,4.90
2018-12-13T05:46:17.298Z,4.90
2018-12-13T05:48:46.519Z,4.73
2018-12-13T05:51:15.784Z,4.43
2018-12-13T05:53:45.111Z,4.40
2018-12-13T05:56:14.385Z,4.50
2018-12-13T05:58:43.636Z,4.23
2018-12-13T06:01:12.983Z,4.53
2018-12-13T06:03:42.222Z,4.23
2018-12-13T06:06:11.485Z,4.13
2018-12-13T06:08:40.727Z,5.20
2018-12-13T06:11:10.137Z,4.40
2018-12-13T06:13:39.991Z,4.03
2018-12-13T06:16:09.639Z,4.70
2018-12-13T06:18:38.920Z,5.80
2018-12-13T06:21:11.952Z,4.63
2018-12-13T06:23:41.197Z,5.03
2018-12-13T06:26:10.705Z,5.07
2018-12-13T06:28:39.953Z,4.83
2018-12-13T06:31:09.334Z,4.87
2018-12-13T06:33:38.522Z,4.53
2018-12-13T06:36:07.812Z,4.90
2018-12-13T06:38:37.238Z,4.80
2018-12-13T06:41:06.618Z,5.20
2018-12-13T06:43:35.927Z,4.73
2018-12-13T06:46:06.268Z,4.20
2018-12-13T06:48:35.495Z,4.60
2018-12-13T06:51:04.735Z,4.50
2018-12-13T06:53:35.112Z,4.67
2018-12-13T06:56:04.381Z,4.70
2018-12-13T06:58:33.638Z,4.63
2018-12-13T07:01:02.963Z,4.47
2018-12-13T07:03:33.076Z,4.63
2018-12-13T07:06:02.354Z,4.83
2018-12-13T07:08:38.414Z,4.60
2018-12-13T07:11:07.635Z,4.50
2018-12-13T07:13:36.937Z,4.33
2018-12-13T07:16:06.154Z,4.40
2018-12-13T07:18:35.764Z,4.10
2018-12-13T07:21:04.994Z,4.23
2018-12-13T07:23:34.287Z,4.90
2018-12-13T07:26:03.606Z,4.43
2018-12-13T07:28:32.893Z,4.33
2018-12-13T07:31:02.285Z,4.40
2018-12-13T07:33:32.114Z,4.33
2018-12-13T07:36:01.400Z,4.67
2018-12-13T07:38:30.651Z,3.90
2018-12-13T07:40:59.864Z,4.40
2018-12-13T07:43:29.128Z,4.57
2018-12-13T07:45:58.361Z,4.60
2018-12-13T07:48:27.587Z,3.70
2018-12-13T07:50:56.834Z,4.73
2018-12-13T07:53:26.076Z,4.10
2018-12-13T07:55:55.310Z,4.77
2018-12-13T07:58:24.659Z,4.10
2018-12-13T08:00:54.195Z,4.27
2018-12-13T08:03:23.469Z,4.47
2018-12-13T08:05:52.731Z,4.70
2018-12-13T08:08:22.873Z,4.33
2018-12-13T08:10:53.121Z,4.53
2018-12-13T08:13:22.487Z,4.50
2018-12-13T08:15:51.711Z,4.27
2018-12-13T08:18:20.902Z,4.33
2018-12-13T08:20:50.182Z,3.90
2018-12-13T08:23:19.431Z,3.97
2018-12-13T08:25:49.268Z,4.20
2018-12-13T08:28:18.443Z,4.37
2018-12-13T08:30:48.366Z,4.60
2018-12-13T08:33:17.718Z,4.00
2018-12-13T08:35:47.176Z,4.73
2018-12-13T08:38:16.577Z,4.63
2018-12-13T08:40:45.978Z,4.03
2018-12-13T08:43:15.754Z,4.50
2018-12-13T08:45:45.004Z,4.90
2018-12-13T08:48:14.226Z,4.83
2018-12-13T08:50:44.470Z,4.90
2018-12-13T08:53:13.771Z,4.60
2018-12-13T08:55:43.527Z,4.60
2018-12-13T08:58:12.832Z,4.20
2018-12-13T09:00:42.145Z,4.20
2018-12-13T09:03:11.707Z,4.70
2018-12-13T09:05:41.196Z,4.20
2018-12-13T09:08:10.423Z,3.50
2018-12-13T09:10:39.639Z,4.23
2018-12-13T09:13:08.878Z,3.63
2018-12-13T09:15:38.347Z,3.93
2018-12-13T09:18:07.589Z,4.17
2018-12-13T09:20:37.432Z,3.80
2018-12-13T09:23:07.616Z,3.70
2018-12-13T09:25:38.846Z,4.70
2018-12-13T09:28:08.219Z,4.37
2018-12-13T09:30:37.450Z,4.63
2018-12-13T09:33:08.872Z,4.00
2018-12-13T09:35:38.086Z,4.07
2018-12-13T09:38:08.951Z,4.20
2018-12-13T09:40:38.233Z,3.83
2018-12-13T09:43:07.621Z,3.83
2018-12-13T09:45:37.631Z,3.80
2018-12-13T09:48:07.155Z,3.70
2018-12-13T09:50:37.477Z,4.00
2018-12-13T09:53:06.729Z,4.23
2018-12-13T09:55:36.031Z,3.90
2018-12-13T09:58:05.488Z,4.00
2018-12-13T10:00:38.803Z,4.20
2018-12-13T10:03:08.016Z,3.73
2018-12-13T10:05:37.293Z,4.00
2018-12-13T10:08:06.557Z,4.30
2018-12-13T10:10:35.831Z,4.13
2018-12-13T10:13:05.005Z,3.80
2018-12-13T10:15:34.320Z,3.97
2018-12-13T10:18:03.698Z,3.90
2018-12-13T10:20:32.962Z,3.50
2018-12-13T10:23:02.189Z,3.83
2018-12-13T10:25:31.446Z,4.00
2018-12-13T10:28:01.101Z,3.80
2018-12-13T10:30:30.301Z,3.43
2018-12-13T10:32:59.704Z,3.80
2018-12-13T10:35:30.251Z,3.80
2018-12-13T10:38:00.326Z,3.90
2018-12-13T10:40:29.555Z,3.90
2018-12-13T10:42:58.798Z,3.70
2018-12-13T10:45:28.615Z,3.67
2018-12-13T10:47:57.846Z,3.47
2018-12-13T10:50:27.217Z,3.37
2018-12-13T10:52:57.522Z,3.63
2018-12-13T10:55:26.838Z,3.60
2018-12-13T10:57:56.146Z,3.90
2018-12-13T11:00:30.692Z,4.43
2018-12-13T11:03:26.252Z,4.00
2018-12-13T11:05:56.529Z,3.53
2018-12-13T11:08:25.802Z,3.60
2018-12-13T11:10:55.038Z,3.53
2018-12-13T11:13:24.274Z,3.77
2018-12-13T11:15:53.741Z,3.93
2018-12-13T11:18:23.858Z,4.10
2018-12-13T11:20:53.817Z,4.03
2018-12-13T11:23:24.212Z,3.80
2018-12-13T11:25:53.417Z,3.80
2018-12-13T11:28:32.850Z,3.80
2018-12-13T11:31:02.718Z,3.60
2018-12-13T11:33:31.964Z,3.90
2018-12-13T11:36:01.236Z,3.43
2018-12-13T11:38:30.569Z,4.03
2018-12-13T11:40:59.860Z,3.30
2018-12-13T11:43:29.277Z,2.77
2018-12-13T11:45:58.600Z,2.47
2018-12-13T11:48:28.026Z,2.70
2018-12-13T11:50:57.243Z,2.97
2018-12-13T11:53:27.304Z,2.70
2018-12-13T11:56:59.701Z,2.60
2018-12-13T11:59:29.537Z,2.70
2018-12-13T12:02:00.296Z,3.50
2018-12-13T12:04:29.650Z,2.73
2018-12-13T12:06:58.863Z,2.73
2018-12-13T12:09:28.098Z,2.80
2018-12-13T12:11:57.366Z,3.40
2018-12-13T12:14:27.050Z,3.20
2018-12-13T12:16:56.306Z,3.50
2018-12-13T12:19:25.551Z,3.17
2018-12-13T12:21:55.874Z,3.00
2018-12-13T12:24:25.109Z,3.43
2018-12-13T12:26:54.391Z,3.70
2018-12-13T12:29:23.668Z,3.50
2018-12-13T12:31:53.117Z,3.33
2018-12-13T12:34:23.001Z,3.60
2018-12-13T12:36:52.320Z,3.13
2018-12-13T12:39:21.613Z,3.37
2018-12-13T12:41:51.749Z,3.10
2018-12-13T12:44:21.513Z,3.70
2018-12-13T12:46:50.789Z,3.50
2018-12-13T12:49:21.027Z,3.90
2018-12-13T12:51:50.277Z,3.40
2018-12-13T12:54:19.513Z,3.53
2018-12-13T12:56:49.920Z,3.73
2018-12-13T12:59:19.193Z,3.70
2018-12-13T13:01:48.676Z,3.90
2018-12-13T13:04:17.908Z,3.67
2018-12-13T13:06:47.348Z,3.50
2018-12-13T13:09:17.718Z,3.97
2018-12-13T13:11:46.982Z,3.27
2018-12-13T13:14:16.287Z,4.10
2018-12-13T13:16:45.538Z,3.67
2018-12-13T13:19:15.082Z,4.00
2018-12-13T13:21:44.318Z,3.50
2018-12-13T13:24:13.569Z,4.20
2018-12-13T13:26:42.810Z,4.20
2018-12-13T13:29:13.667Z,4.27
2018-12-13T13:31:42.941Z,4.00
2018-12-13T13:34:12.222Z,3.80
2018-12-13T13:36:42.331Z,4.10
2018-12-13T13:39:11.582Z,4.27
2018-12-13T13:41:40.824Z,4.33
2018-12-13T13:44:11.250Z,4.30
2018-12-13T13:46:40.519Z,4.37
2018-12-13T13:49:09.773Z,4.90
2018-12-13T13:51:39.029Z,5.03
2018-12-13T13:54:08.519Z,4.83
2018-12-13T13:56:38.218Z,4.80
2018-12-13T13:59:07.465Z,4.67
2018-12-13T14:01:36.722Z,4.93
2018-12-13T14:04:06.042Z,4.97
2018-12-13T14:06:35.692Z,4.77
2018-12-13T14:09:07.502Z,4.67
2018-12-13T14:11:37.554Z,5.67
2018-12-13T14:14:07.444Z,5.40
2018-12-13T14:16:36.797Z,5.17
2018-12-13T14:19:06.036Z,5.17
2018-12-13T14:21:35.294Z,5.30
2018-12-13T14:24:05.559Z,5.80
2018-12-13T14:26:35.431Z,5.37
2018-12-13T14:29:04.892Z,6.07
2018-12-13T14:31:34.682Z,5.60
2018-12-13T14:34:04.315Z,5.20
2018-12-13T14:36:35.581Z,5.60
2018-12-13T14:39:07.543Z,5.00
2018-12-13T14:41:36.812Z,5.87
2018-12-13T14:44:06.223Z,6.93
2018-12-13T14:46:35.667Z,6.10
2018-12-13T14:49:05.302Z,5.50
2018-12-13T14:51:34.751Z,5.77
2018-12-13T14:54:04.092Z,5.97
2018-12-13T14:56:35.686Z,6.37
2018-12-13T14:59:05.059Z,6.60
2018-12-13T15:01:34.577Z,5.73
2018-12-13T15:04:04.141Z,6.17
2018-12-13T15:06:33.386Z,6.47
2018-12-13T15:09:02.937Z,5.97
2018-12-13T15:11:33.226Z,6.17
2018-12-13T15:14:02.752Z,5.67
2018-12-13T15:16:32.112Z,6.27
2018-12-13T15:19:01.363Z,6.40
2018-12-13T15:21:30.753Z,6.47
2018-12-13T15:24:00.004Z,6.57
2018-12-13T15:26:29.243Z,6.63
2018-12-13T15:28:58.511Z,6.37
2018-12-13T15:31:28.274Z,6.33
2018-12-13T15:33:59.450Z,5.77
2018-12-13T15:36:28.825Z,6.40
2018-12-13T15:38:58.051Z,6.43
2018-12-13T15:41:27.346Z,5.97
2018-12-13T15:43:59.422Z,6.60
2018-12-13T15:46:28.721Z,6.53
2018-12-13T15:48:58.171Z,6.97
2018-12-13T15:51:28.014Z,5.93
2018-12-13T15:53:58.215Z,6.77
2018-12-13T15:56:27.587Z,6.83
2018-12-13T15:58:57.176Z,6.67
2018-12-13T16:01:26.938Z,6.50
2018-12-13T16:03:56.209Z,6.07
2018-12-13T16:06:27.587Z,5.97
2018-12-13T16:08:57.055Z,6.40
2018-12-13T16:11:27.030Z,6.13
2018-12-13T16:13:56.497Z,6.37
2018-12-13T16:16:25.747Z,6.20
2018-12-13T16:18:55.002Z,6.23
2018-12-13T16:21:24.704Z,6.83
2018-12-13T16:23:55.643Z,6.87
2018-12-13T16:26:24.937Z,6.77
2018-12-13T16:28:54.484Z,6.50
2018-12-13T16:31:25.000Z,6.23
2018-12-13T16:33:55.015Z,6.83
2018-12-13T16:36:24.307Z,7.20
2018-12-13T16:38:54.425Z,6.03
2018-12-13T16:41:23.972Z,6.77
2018-12-13T16:43:53.343Z,6.90
2018-12-13T16:46:22.645Z,6.40
2018-12-13T16:48:51.900Z,6.70
2018-12-13T16:51:21.146Z,6.30
2018-12-13T16:53:50.630Z,6.23
2018-12-13T16:56:20.104Z,5.73
2018-12-13T16:58:50.449Z,6.13
2018-12-13T17:01:19.726Z,5.93
2018-12-13T17:03:49.018Z,6.77
2018-12-13T17:06:19.242Z,6.23
2018-12-13T17:08:48.471Z,6.93
2018-12-13T17:11:17.723Z,6.83
2018-12-13T17:13:46.976Z,6.30
2018-12-13T17:16:16.236Z,6.23
2018-12-13T17:18:45.543Z,6.17
2018-12-13T17:21:15.940Z,5.93
2018-12-13T17:23:45.464Z,5.60
2018-12-13T17:26:14.881Z,6.17
2018-12-13T17:28:44.120Z,6.50
2018-12-13T17:31:14.221Z,5.60
2018-12-13T17:33:43.445Z,5.57
2018-12-13T17:36:12.822Z,5.67
2018-12-13T17:38:42.069Z,6.07
2018-12-13T17:41:12.517Z,6.60
2018-12-13T17:43:41.772Z,6.00
2018-12-13T17:46:12.118Z,5.73
2018-12-13T17:48:54.207Z,5.83
2018-12-13T17:51:24.344Z,6.10
2018-12-13T17:53:54.234Z,5.17
2018-12-13T17:56:23.816Z,5.30
2018-12-13T17:58:54.905Z,5.63
2018-12-13T18:01:24.156Z,5.60
2018-12-13T18:03:53.849Z,5.50
2018-12-13T18:06:23.086Z,5.60
2018-12-13T18:08:53.059Z,5.77
2018-12-13T18:11:22.619Z,5.17
2018-12-13T18:13:51.908Z,5.90
2018-12-13T18:16:21.159Z,5.47
2018-12-13T18:18:50.435Z,6.20
2018-12-13T18:21:19.716Z,6.20
2018-12-13T18:23:50.493Z,6.27
2018-12-13T18:26:19.774Z,6.23
2018-12-13T18:28:49.746Z,5.93
2018-12-13T18:31:19.072Z,5.97
2018-12-13T18:33:48.339Z,6.43
2018-12-13T18:36:17.575Z,6.00
2018-12-13T18:38:46.964Z,6.47
2018-12-13T18:41:16.150Z,5.80
2018-12-13T18:43:45.974Z,5.97
2018-12-13T18:46:15.671Z,5.77
2018-12-13T18:48:46.017Z,6.47
2018-12-13T18:51:15.613Z,6.13
2018-12-13T18:53:44.948Z,5.83
2018-12-13T18:56:14.555Z,6.73
2018-12-13T18:58:44.820Z,5.67
2018-12-13T19:01:14.019Z,6.10
2018-12-13T19:03:44.237Z,6.27
2018-12-13T19:06:13.551Z,6.87
2018-12-13T19:08:43.209Z,6.87
2018-12-13T19:11:13.775Z,6.83
2018-12-13T19:13:43.158Z,6.10
2018-12-13T19:16:13.097Z,7.17
2018-12-13T19:18:44.146Z,6.30
2018-12-13T19:21:14.461Z,6.20
2018-12-13T19:23:44.484Z,7.63
2018-12-13T19:26:14.736Z,6.93
2018-12-13T19:28:45.694Z,7.23
2018-12-13T19:31:15.000Z,8.00
2018-12-13T19:33:44.269Z,6.80
2018-12-13T19:36:13.511Z,6.20
2018-12-13T19:38:42.804Z,6.10
2018-12-13T19:41:12.224Z,6.30
2018-12-13T19:43:41.631Z,6.50
2018-12-13T19:46:10.950Z,6.60
2018-12-13T19:48:40.443Z,5.73
2018-12-13T19:51:09.860Z,6.30
2018-12-13T19:53:40.133Z,6.20
2018-12-13T19:56:09.416Z,5.90
2018-12-13T19:58:38.641Z,6.23
2018-12-13T20:01:07.897Z,5.30
2018-12-13T20:03:37.856Z,5.40
2018-12-13T20:06:07.141Z,5.83
2018-12-13T20:08:36.414Z,5.87
2018-12-13T20:11:05.698Z,5.57
2018-12-13T20:13:35.015Z,5.47
2018-12-13T20:16:04.366Z,5.37
2018-12-13T20:18:34.527Z,6.60
2018-12-13T20:21:03.940Z,5.70
2018-12-13T20:23:33.199Z,5.73
2018-12-13T20:26:02.701Z,6.20
2018-12-13T20:28:31.954Z,6.20
2018-12-13T20:31:01.270Z,6.37
2018-12-13T20:33:32.685Z,6.13
2018-12-13T20:36:02.192Z,6.63
2018-12-13T20:38:31.464Z,7.27
2018-12-13T20:41:01.069Z,6.67
2018-12-13T20:43:30.536Z,6.50
2018-12-13T20:45:59.822Z,6.67
2018-12-13T20:48:29.372Z,6.20
2018-12-13T20:50:59.556Z,6.23
2018-12-13T20:53:28.835Z,6.90
2018-12-13T20:55:58.225Z,7.30
2018-12-13T20:58:27.603Z,7.17
2018-12-13T21:00:56.850Z,6.97
2018-12-13T21:03:26.118Z,6.37
2018-12-13T21:05:55.464Z,6.60
2018-12-13T21:08:24.696Z,6.53
2018-12-13T21:10:54.070Z,5.77
2018-12-13T21:13:23.691Z,5.83
2018-12-13T21:15:53.195Z,6.47
2018-12-13T21:18:23.254Z,6.97
2018-12-13T21:20:53.547Z,6.67
2018-12-13T21:23:22.819Z,7.27
2018-12-13T21:25:52.117Z,6.70
2018-12-13T21:28:21.375Z,6.40
2018-12-13T21:30:51.638Z,7.20
2018-12-13T21:33:22.031Z,6.67
2018-12-13T21:35:51.319Z,6.63
2018-12-13T21:38:21.775Z,6.00
2018-12-13T21:40:51.776Z,7.20
2018-12-13T21:43:21.060Z,7.43
2018-12-13T21:45:50.698Z,7.03
2018-12-13T21:48:19.984Z,7.90
2018-12-13T21:50:49.214Z,6.30
2018-12-13T21:53:19.005Z,7.37
2018-12-13T21:55:48.279Z,7.20
2018-12-13T21:58:17.545Z,7.10
2018-12-13T22:00:47.589Z,7.43
2018-12-13T22:03:17.515Z,6.37
2018-12-13T22:05:47.671Z,6.40
2018-12-13T22:08:17.559Z,6.23
2018-12-13T22:10:47.605Z,6.90
2018-12-13T22:13:17.175Z,7.93
2018-12-13T22:15:47.082Z,7.17
2018-12-13T22:18:17.122Z,7.07
2018-12-13T22:20:48.709Z,7.80
2018-12-13T22:23:17.906Z,7.03
2018-12-13T22:25:50.052Z,6.60
2018-12-13T22:28:20.081Z,7.27
2018-12-13T22:30:49.289Z,6.30
2018-12-13T22:33:18.529Z,6.10
2018-12-13T22:35:48.460Z,6.00
2018-12-13T22:38:18.685Z,6.80
2018-12-13T22:40:48.649Z,6.33
2018-12-13T22:43:20.648Z,6.53
2018-12-13T22:45:50.130Z,6.37
2018-12-13T22:48:25.796Z,6.00
2018-12-13T22:50:55.067Z,6.60
2018-12-13T22:53:24.282Z,6.63
2018-12-13T22:55:54.245Z,6.23
2018-12-13T22:58:23.683Z,6.67
2018-12-13T23:00:53.946Z,7.73
2018-12-13T23:03:23.423Z,6.33
2018-12-13T23:05:53.279Z,5.93
2018-12-13T23:08:22.659Z,6.43
2018-12-13T23:10:51.968Z,5.93
2018-12-13T23:13:21.272Z,7.17
2018-12-13T23:15:50.505Z,5.73
2018-12-13T23:18:19.817Z,6.17
2018-12-13T23:20:49.371Z,6.47
2018-12-13T23:23:18.614Z,6.03
2018-12-13T23:25:47.862Z,6.70
2018-12-13T23:28:17.932Z,6.20
2018-12-13T23:30:47.180Z,6.27
2018-12-13T23:33:16.429Z,6.97
2018-12-13T23:35:47.037Z,6.40
2018-12-13T23:38:16.349Z,6.30
2018-12-13T23:40:45.587Z,6.27
2018-12-13T23:43:15.889Z,5.90
2018-12-13T23:45:45.081Z,6.40
2018-12-13T23:48:14.366Z,6.47
2018-12-13T23:50:44.595Z,7.03
2018-12-13T23:53:14.403Z,6.77
2018-12-13T23:55:43.693Z,7.10
2018-12-13T23:58:13.026Z,6.77
